createdAt,value
2022-08-20T00:01:21.586Z,15.80
2022-08-20T00:03:50.316Z,16.57
2022-08-20T00:06:23.775Z,14.80
2022-08-20T00:08:52.441Z,15.57
2022-08-20T00:11:25.730Z,15.83
2022-08-20T00:13:58.390Z,15.37
2022-08-20T00:16:32.884Z,14.43
2022-08-20T00:19:01.645Z,14.73
2022-08-20T00:21:31.445Z,13.33
2022-08-20T00:24:00.186Z,14.70
2022-08-20T00:26:29.674Z,13.83
2022-08-20T00:28:57.899Z,13.37
2022-08-20T00:31:26.691Z,14.73
2022-08-20T00:33:55.078Z,14.30
2022-08-20T00:36:32.169Z,15.87
2022-08-20T00:39:02.059Z,14.17
2022-08-20T00:41:31.993Z,14.63
2022-08-20T00:44:10.539Z,14.40
2022-08-20T00:46:39.702Z,15.03
2022-08-20T00:49:10.305Z,16.33
2022-08-20T00:51:43.851Z,14.80
2022-08-20T00:54:16.466Z,15.40
2022-08-20T00:56:50.429Z,16.07
2022-08-20T00:59:22.357Z,14.53
2022-08-20T01:01:55.793Z,14.30
2022-08-20T01:04:26.396Z,14.67
2022-08-20T01:06:55.263Z,14.97
2022-08-20T01:09:49.426Z,16.47
2022-08-20T01:12:14.630Z,16.00
2022-08-20T01:14:45.856Z,16.20
2022-08-20T01:17:18.154Z,15.47
2022-08-20T01:19:52.587Z,16.80
2022-08-20T01:22:41.374Z,15.47
2022-08-20T01:25:18.087Z,14.73
2022-08-20T01:27:55.221Z,15.37
2022-08-20T01:30:25.803Z,16.40
2022-08-20T01:32:54.001Z,17.00
2022-08-20T01:35:23.499Z,16.97
2022-08-20T01:37:52.484Z,17.40
2022-08-20T01:40:41.303Z,16.73
2022-08-20T01:43:11.480Z,16.30
2022-08-20T01:45:41.309Z,15.40
2022-08-20T01:48:09.775Z,16.20
2022-08-20T01:50:42.946Z,16.87
2022-08-20T01:53:19.015Z,15.80
2022-08-20T01:55:47.288Z,14.87
2022-08-20T01:58:17.106Z,15.23
2022-08-20T02:00:45.291Z,15.70
2022-08-20T02:03:13.502Z,15.60
2022-08-20T02:05:42.067Z,16.23
2022-08-20T02:08:10.308Z,15.10
2022-08-20T02:10:38.465Z,15.90
2022-08-20T02:13:09.024Z,16.17
2022-08-20T02:15:39.795Z,16.57
2022-08-20T02:18:13.982Z,15.37
2022-08-20T02:20:43.753Z,16.03
2022-08-20T02:23:13.247Z,17.27
2022-08-20T02:25:44.652Z,16.10
2022-08-20T02:28:15.503Z,14.70
2022-08-20T02:30:48.022Z,15.27
2022-08-20T02:33:19.237Z,15.80
2022-08-20T02:35:50.177Z,16.43
2022-08-20T02:38:18.492Z,15.50
2022-08-20T02:40:49.044Z,15.53
2022-08-20T02:43:18.829Z,15.13
2022-08-20T02:45:48.759Z,15.00
2022-08-20T02:48:21.006Z,15.00
2022-08-20T02:50:55.084Z,13.90
2022-08-20T02:53:24.429Z,13.93
2022-08-20T02:55:52.948Z,14.30
2022-08-20T02:58:21.894Z,15.23
2022-08-20T03:00:51.754Z,15.53
2022-08-20T03:03:22.547Z,12.40
2022-08-20T03:05:52.974Z,13.87
2022-08-20T03:08:22.287Z,13.80
2022-08-20T03:10:51.418Z,13.03
2022-08-20T03:13:21.199Z,13.73
2022-08-20T03:15:58.418Z,14.07
2022-08-20T03:18:30.161Z,12.43
2022-08-20T03:20:58.442Z,13.30
2022-08-20T03:23:26.899Z,13.27
2022-08-20T03:25:55.681Z,15.63
2022-08-20T03:28:24.010Z,15.17
2022-08-20T03:30:54.738Z,17.30
2022-08-20T03:33:24.124Z,16.40
2022-08-20T03:35:53.146Z,15.33
2022-08-20T03:38:32.270Z,14.40
2022-08-20T03:41:02.409Z,13.50
2022-08-20T03:43:31.542Z,14.70
2022-08-20T03:46:01.125Z,13.70
2022-08-20T03:48:29.474Z,14.73
2022-08-20T03:51:00.746Z,15.60
2022-08-20T03:53:31.603Z,14.50
2022-08-20T03:56:03.265Z,14.93
2022-08-20T03:58:36.364Z,15.40
2022-08-20T04:01:32.105Z,14.03
2022-08-20T04:03:58.873Z,15.67
2022-08-20T04:06:27.769Z,16.30
2022-08-20T04:08:56.378Z,16.60
2022-08-20T04:11:24.801Z,18.07
2022-08-20T04:13:53.409Z,17.80
2022-08-20T04:16:23.951Z,19.07
2022-08-20T04:18:58.587Z,16.70
2022-08-20T04:21:32.862Z,17.33
2022-08-20T04:24:03.235Z,16.80
2022-08-20T04:26:31.992Z,20.20
2022-08-20T04:29:00.265Z,17.60
2022-08-20T04:31:33.906Z,17.80
2022-08-20T04:34:03.011Z,18.00
2022-08-20T04:36:31.636Z,16.53
2022-08-20T04:38:59.933Z,18.27
2022-08-20T04:41:28.959Z,18.43
2022-08-20T04:43:58.088Z,18.77
2022-08-20T04:46:29.082Z,18.00
2022-08-20T04:49:00.731Z,18.90
2022-08-20T04:51:29.075Z,18.37
2022-08-20T04:54:00.154Z,19.07
2022-08-20T04:56:31.977Z,19.03
2022-08-20T04:59:02.352Z,17.80
2022-08-20T05:01:30.615Z,17.10
2022-08-20T05:04:00.638Z,18.73
2022-08-20T05:06:31.181Z,17.60
2022-08-20T05:09:01.319Z,20.10
2022-08-20T05:11:35.750Z,18.77
2022-08-20T05:14:06.854Z,20.87
2022-08-20T05:16:40.417Z,19.87
2022-08-20T05:19:12.526Z,19.53
2022-08-20T05:21:41.595Z,18.80
2022-08-20T05:24:11.357Z,19.30
2022-08-20T05:26:39.726Z,20.30
2022-08-20T05:29:08.166Z,19.03
2022-08-20T05:31:37.527Z,21.00
2022-08-20T05:34:11.066Z,22.70
2022-08-20T05:36:43.754Z,21.47
2022-08-20T05:39:13.324Z,21.70
2022-08-20T05:41:42.161Z,24.50
2022-08-20T05:44:13.575Z,24.23
2022-08-20T05:46:43.920Z,22.77
2022-08-20T05:49:14.497Z,24.03
2022-08-20T05:51:44.350Z,25.60
2022-08-20T05:54:13.946Z,25.00
2022-08-20T05:56:42.702Z,24.80
2022-08-20T05:59:12.472Z,25.53
2022-08-20T06:01:41.970Z,26.17
2022-08-20T06:04:25.216Z,25.50
2022-08-20T06:06:57.843Z,24.40
2022-08-20T06:09:30.906Z,24.50
2022-08-20T06:12:03.072Z,26.50
2022-08-20T06:14:31.981Z,26.30
2022-08-20T06:17:04.885Z,25.10
2022-08-20T06:19:33.974Z,28.00
2022-08-20T06:22:18.398Z,26.13
2022-08-20T06:24:53.321Z,24.33
2022-08-20T06:27:22.158Z,28.87
2022-08-20T06:29:50.442Z,26.70
2022-08-20T06:32:19.851Z,28.73
2022-08-20T06:34:57.081Z,27.33
2022-08-20T06:37:31.054Z,26.07
2022-08-20T06:40:02.524Z,25.00
2022-08-20T06:42:30.741Z,28.60
2022-08-20T06:45:00.526Z,24.37
2022-08-20T06:47:29.153Z,25.80
2022-08-20T06:49:57.331Z,27.63
2022-08-20T06:52:35.004Z,25.90
2022-08-20T06:55:16.582Z,29.23
2022-08-20T06:57:44.819Z,32.87
2022-08-20T07:00:17.797Z,27.83
2022-08-20T07:02:48.118Z,28.33
2022-08-20T07:05:16.905Z,23.00
2022-08-20T07:07:49.410Z,29.33
2022-08-20T07:10:19.555Z,25.00
2022-08-20T07:12:50.552Z,27.30
2022-08-20T07:15:21.178Z,27.17
2022-08-20T07:17:51.338Z,28.53
2022-08-20T07:20:20.025Z,29.03
2022-08-20T07:22:50.155Z,29.30
2022-08-20T07:25:21.278Z,27.13
2022-08-20T07:27:52.650Z,24.90
2022-08-20T07:30:56.618Z,27.90
2022-08-20T07:33:28.134Z,26.47
2022-08-20T07:35:57.002Z,25.33
2022-08-20T07:38:28.096Z,27.53
2022-08-20T07:40:59.218Z,24.83
2022-08-20T07:43:28.337Z,23.07
2022-08-20T07:46:00.663Z,24.53
2022-08-20T07:48:32.199Z,24.57
2022-08-20T07:51:03.451Z,23.10
2022-08-20T07:53:35.939Z,21.60
2022-08-20T07:56:07.233Z,20.90
2022-08-20T07:58:38.266Z,22.70
2022-08-20T08:01:07.705Z,20.63
2022-08-20T08:03:49.140Z,17.50
2022-08-20T08:06:30.554Z,19.30
2022-08-20T08:09:05.014Z,20.60
2022-08-20T08:11:35.756Z,19.57
2022-08-20T08:14:06.286Z,21.60
2022-08-20T08:16:35.223Z,19.50
2022-08-20T08:19:07.539Z,17.97
2022-08-20T08:21:35.957Z,17.77
2022-08-20T08:24:05.897Z,18.73
2022-08-20T08:26:34.147Z,16.53
2022-08-20T08:29:02.581Z,17.07
2022-08-20T08:31:30.840Z,15.13
2022-08-20T08:33:59.031Z,16.87
2022-08-20T08:36:27.409Z,16.80
2022-08-20T08:38:56.568Z,16.73
2022-08-20T08:41:31.878Z,16.63
2022-08-20T08:44:08.211Z,16.00
2022-08-20T08:46:41.652Z,16.80
2022-08-20T08:49:13.206Z,16.20
2022-08-20T08:51:44.008Z,18.00
2022-08-20T08:54:17.214Z,17.70
2022-08-20T08:56:49.821Z,17.53
2022-08-20T08:59:20.567Z,16.47
2022-08-20T09:01:55.132Z,15.50
2022-08-20T09:04:31.433Z,16.77
2022-08-20T09:07:02.633Z,17.00
2022-08-20T09:09:33.750Z,17.80
2022-08-20T09:12:08.627Z,18.10
2022-08-20T09:14:37.975Z,15.03
2022-08-20T09:17:07.404Z,16.23
2022-08-20T09:19:35.630Z,17.97
2022-08-20T09:22:09.534Z,17.93
2022-08-20T09:24:38.867Z,17.63
2022-08-20T09:27:08.415Z,18.50
2022-08-20T09:29:36.679Z,18.93
2022-08-20T09:32:06.767Z,19.20
2022-08-20T09:34:37.246Z,17.57
2022-08-20T09:37:06.065Z,16.73
2022-08-20T09:39:34.319Z,19.53
2022-08-20T09:42:13.104Z,17.80
2022-08-20T09:44:42.221Z,17.30
2022-08-20T09:47:10.755Z,18.63
2022-08-20T09:49:39.159Z,18.90
2022-08-20T09:52:10.039Z,19.00
2022-08-20T09:54:46.423Z,18.50
2022-08-20T09:57:17.057Z,21.63
2022-08-20T09:59:49.107Z,21.53
2022-08-20T10:02:17.297Z,20.53
2022-08-20T10:04:45.621Z,21.37
2022-08-20T10:07:16.034Z,19.20
2022-08-20T10:09:44.632Z,21.27
2022-08-20T10:12:13.330Z,21.20
2022-08-20T10:14:43.029Z,21.80
2022-08-20T10:17:11.299Z,20.93
2022-08-20T10:19:39.742Z,21.00
2022-08-20T10:22:08.121Z,21.67
2022-08-20T10:24:36.365Z,22.03
2022-08-20T10:27:04.920Z,23.83
2022-08-20T10:29:33.650Z,23.60
2022-08-20T10:32:12.348Z,24.03
2022-08-20T10:34:41.199Z,23.10
2022-08-20T10:37:10.180Z,20.77
2022-08-20T10:39:38.560Z,24.40
2022-08-20T10:42:07.079Z,23.70
2022-08-20T10:44:35.311Z,23.40
2022-08-20T10:47:19.937Z,23.10
2022-08-20T10:49:48.459Z,21.60
2022-08-20T10:52:16.700Z,24.23
2022-08-20T10:54:45.181Z,22.60
2022-08-20T10:57:15.596Z,24.57
2022-08-20T10:59:46.266Z,21.17
2022-08-20T11:02:16.743Z,25.53
2022-08-20T11:04:45.843Z,24.87
2022-08-20T11:07:17.007Z,22.30
2022-08-20T11:09:46.113Z,24.30
2022-08-20T11:12:14.775Z,24.70
2022-08-20T11:14:42.953Z,25.80
2022-08-20T11:17:11.746Z,25.30
2022-08-20T11:19:42.520Z,23.87
2022-08-20T11:22:12.090Z,26.43
2022-08-20T11:24:40.319Z,24.53
2022-08-20T11:27:09.514Z,24.67
2022-08-20T11:29:39.151Z,25.50
2022-08-20T11:32:08.710Z,24.20
2022-08-20T11:34:36.915Z,24.37
2022-08-20T11:37:06.450Z,25.13
2022-08-20T11:39:37.519Z,24.20
2022-08-20T11:42:09.606Z,23.80
2022-08-20T11:44:38.159Z,24.27
2022-08-20T11:47:08.718Z,24.17
2022-08-20T11:49:38.576Z,23.80
2022-08-20T11:52:08.297Z,26.03
2022-08-20T11:54:40.412Z,25.80
2022-08-20T11:57:08.990Z,23.40
2022-08-20T11:59:37.153Z,24.67
2022-08-20T12:02:12.143Z,23.90
2022-08-20T12:04:40.741Z,23.00
2022-08-20T12:07:11.523Z,25.00
2022-08-20T12:09:50.649Z,22.10
2022-08-20T12:12:20.543Z,23.00
2022-08-20T12:14:48.869Z,23.07
2022-08-20T12:17:21.350Z,22.37
2022-08-20T12:19:49.520Z,24.00
2022-08-20T12:22:25.157Z,22.10
2022-08-20T12:24:54.561Z,22.50
2022-08-20T12:27:24.889Z,21.33
2022-08-20T12:29:54.821Z,22.33
2022-08-20T12:32:23.665Z,20.77
2022-08-20T12:34:52.073Z,21.80
2022-08-20T12:37:25.225Z,21.50
2022-08-20T12:39:55.804Z,20.03
2022-08-20T12:42:25.093Z,19.87
2022-08-20T12:44:53.621Z,22.73
2022-08-20T12:47:23.824Z,20.50
2022-08-20T12:49:54.101Z,20.77
2022-08-20T12:52:25.931Z,20.33
2022-08-20T12:54:54.883Z,19.50
2022-08-20T12:57:25.538Z,18.63
2022-08-20T12:59:53.646Z,20.13
2022-08-20T13:02:22.081Z,20.43
2022-08-20T13:04:50.303Z,21.07
2022-08-20T13:07:18.545Z,22.20
2022-08-20T13:09:49.160Z,19.33
2022-08-20T13:12:17.566Z,19.20
2022-08-20T13:14:45.724Z,20.27
2022-08-20T13:17:13.979Z,19.97
2022-08-20T13:19:45.056Z,18.93
2022-08-20T13:22:14.139Z,19.73
2022-08-20T13:24:43.074Z,17.97
2022-08-20T13:27:14.543Z,19.50
2022-08-20T13:29:47.548Z,17.80
2022-08-20T13:32:16.051Z,17.97
2022-08-20T13:34:45.263Z,18.53
2022-08-20T13:37:14.643Z,17.30
2022-08-20T13:39:43.654Z,14.87
2022-08-20T13:42:14.412Z,16.70
2022-08-20T13:44:43.415Z,16.53
2022-08-20T13:47:19.684Z,15.33
2022-08-20T13:49:49.495Z,12.93
2022-08-20T13:52:17.628Z,11.73
2022-08-20T13:54:45.868Z,11.30
2022-08-20T13:57:17.778Z,10.57
2022-08-20T13:59:48.128Z,10.50
2022-08-20T14:02:19.091Z,11.07
2022-08-20T14:04:48.635Z,10.50
2022-08-20T14:07:19.685Z,10.40
2022-08-20T14:09:50.356Z,9.33
2022-08-20T14:12:20.571Z,10.87
2022-08-20T14:14:49.022Z,9.90
2022-08-20T14:17:19.168Z,10.27
2022-08-20T14:19:49.107Z,8.93
2022-08-20T14:22:18.593Z,8.47
2022-08-20T14:24:50.338Z,9.57
2022-08-20T14:27:21.816Z,9.40
2022-08-20T14:29:51.384Z,8.60
2022-08-20T14:32:19.803Z,8.60
2022-08-20T14:34:48.050Z,8.47
2022-08-20T14:37:16.965Z,9.00
2022-08-20T14:39:47.519Z,8.70
2022-08-20T14:42:15.968Z,8.40
2022-08-20T14:44:45.782Z,7.97
2022-08-20T14:47:16.461Z,8.30
2022-08-20T14:49:46.020Z,9.40
2022-08-20T14:52:16.453Z,9.13
2022-08-20T14:54:45.737Z,8.50
2022-08-20T14:57:16.305Z,9.17
2022-08-20T14:59:46.733Z,8.43
2022-08-20T15:02:17.753Z,9.20
2022-08-20T15:04:52.243Z,9.07
2022-08-20T15:07:25.617Z,8.67
2022-08-20T15:09:54.774Z,18.00
2022-08-20T15:12:23.454Z,8.33
2022-08-20T15:14:53.001Z,21.30
2022-08-20T15:17:22.936Z,10.30
2022-08-20T15:19:51.398Z,9.10
2022-08-20T15:22:20.021Z,10.17
2022-08-20T15:24:48.875Z,23.40
2022-08-20T15:27:22.665Z,12.17
2022-08-20T15:29:53.787Z,13.30
2022-08-20T15:32:22.847Z,14.43
2022-08-20T15:34:51.087Z,10.13
2022-08-20T15:37:21.676Z,10.53
2022-08-20T15:39:51.958Z,12.23
2022-08-20T15:42:22.246Z,11.17
2022-08-20T15:44:50.910Z,11.50
2022-08-20T15:47:27.280Z,10.87
2022-08-20T15:50:03.634Z,14.10
2022-08-20T15:52:41.832Z,10.60
2022-08-20T15:55:12.818Z,12.67
2022-08-20T15:57:50.830Z,10.60
2022-08-20T16:00:21.688Z,12.00
2022-08-20T16:03:19.147Z,12.70
2022-08-20T16:05:55.333Z,13.10
2022-08-20T16:08:44.198Z,10.70
2022-08-20T16:11:21.077Z,11.93
2022-08-20T16:13:52.095Z,12.27
2022-08-20T16:16:26.562Z,11.77
2022-08-20T16:18:56.316Z,11.60
2022-08-20T16:21:30.443Z,12.90
2022-08-20T16:23:58.817Z,12.77
2022-08-20T16:26:47.598Z,13.00
2022-08-20T16:29:20.575Z,10.80
2022-08-20T16:31:54.467Z,14.10
2022-08-20T16:34:33.637Z,13.23
2022-08-20T16:37:12.912Z,13.23
2022-08-20T16:39:48.442Z,13.57
2022-08-20T16:42:24.219Z,13.80
2022-08-20T16:44:56.136Z,14.50
2022-08-20T16:47:29.300Z,14.10
2022-08-20T16:50:04.596Z,13.13
2022-08-20T16:52:32.973Z,14.90
2022-08-20T16:55:01.187Z,13.37
2022-08-20T16:57:30.355Z,13.33
2022-08-20T17:00:08.895Z,12.00
2022-08-20T17:02:37.115Z,12.57
2022-08-20T17:05:07.377Z,13.43
2022-08-20T17:07:46.160Z,15.30
2022-08-20T17:10:20.856Z,14.80
2022-08-20T17:12:54.391Z,13.73
2022-08-20T17:15:26.630Z,14.27
2022-08-20T17:17:55.915Z,13.60
2022-08-20T17:20:28.033Z,13.33
2022-08-20T17:23:10.649Z,14.60
2022-08-20T17:25:39.343Z,12.10
2022-08-20T17:28:15.721Z,13.30
2022-08-20T17:30:45.680Z,13.20
2022-08-20T17:33:25.228Z,13.03
2022-08-20T17:35:56.778Z,13.30
2022-08-20T17:38:33.047Z,13.30
2022-08-20T17:41:03.800Z,11.80
2022-08-20T17:43:34.383Z,12.70
2022-08-20T17:46:07.619Z,15.10
2022-08-20T17:48:44.824Z,14.30
2022-08-20T17:51:20.153Z,13.40
2022-08-20T17:53:52.655Z,13.53
2022-08-20T17:56:24.932Z,14.50
2022-08-20T17:58:58.166Z,14.43
2022-08-20T18:01:32.130Z,14.03
2022-08-20T18:04:00.405Z,14.00
2022-08-20T18:06:35.950Z,12.00
2022-08-20T18:09:11.138Z,13.27
2022-08-20T18:11:45.190Z,13.70
2022-08-20T18:14:26.903Z,13.60
2022-08-20T18:17:11.735Z,14.60
2022-08-20T18:20:12.392Z,13.67
2022-08-20T18:22:51.065Z,12.63
2022-08-20T18:25:29.157Z,13.73
2022-08-20T18:28:03.363Z,13.80
2022-08-20T18:30:33.356Z,12.90
2022-08-20T18:33:05.519Z,13.10
2022-08-20T18:35:37.502Z,13.17
2022-08-20T18:38:26.973Z,13.77
2022-08-20T18:41:06.609Z,15.20
2022-08-20T18:43:35.680Z,14.40
2022-08-20T18:46:12.782Z,14.30
2022-08-20T18:48:52.068Z,14.97
2022-08-20T18:51:25.096Z,13.40
2022-08-20T18:53:54.822Z,15.10
2022-08-20T18:56:33.196Z,14.17
2022-08-20T18:59:06.269Z,15.60
2022-08-20T19:01:37.457Z,14.67
2022-08-20T19:04:23.035Z,15.17
2022-08-20T19:06:57.486Z,14.63
2022-08-20T19:09:43.937Z,14.53
2022-08-20T19:12:27.382Z,13.73
2022-08-20T19:15:00.874Z,14.10
2022-08-20T19:17:45.750Z,15.63
2022-08-20T19:20:19.121Z,14.13
2022-08-20T19:22:49.909Z,14.07
2022-08-20T19:25:30.725Z,13.70
2022-08-20T19:28:01.577Z,14.93
2022-08-20T19:30:33.266Z,13.63
2022-08-20T19:33:02.451Z,15.00
2022-08-20T19:35:30.742Z,15.97
2022-08-20T19:37:59.479Z,15.00
2022-08-20T19:40:32.077Z,15.30
2022-08-20T19:43:03.282Z,15.30
2022-08-20T19:45:42.634Z,15.20
2022-08-20T19:48:27.108Z,14.73
2022-08-20T19:51:06.367Z,15.73
2022-08-20T19:53:36.914Z,16.27
2022-08-20T19:56:11.479Z,16.10
2022-08-20T19:58:40.249Z,16.00
2022-08-20T20:01:11.982Z,15.20
2022-08-20T20:03:40.292Z,14.30
2022-08-20T20:06:16.565Z,16.17
2022-08-20T20:08:52.781Z,14.40
2022-08-20T20:11:27.928Z,15.80
2022-08-20T20:14:03.028Z,15.03
2022-08-20T20:16:32.649Z,16.07
2022-08-20T20:19:24.894Z,16.13
2022-08-20T20:21:51.769Z,15.87
2022-08-20T20:24:25.657Z,16.63
2022-08-20T20:26:55.759Z,15.63
2022-08-20T20:29:26.872Z,15.63
2022-08-20T20:31:58.073Z,16.20
2022-08-20T20:34:28.594Z,15.20
2022-08-20T20:37:07.355Z,16.03
2022-08-20T20:39:38.317Z,16.77
2022-08-20T20:42:11.272Z,16.40
2022-08-20T20:44:41.745Z,15.20
2022-08-20T20:47:20.205Z,18.87
2022-08-20T20:49:52.258Z,16.23
2022-08-20T20:52:23.523Z,17.90
2022-08-20T20:54:52.962Z,17.43
2022-08-20T20:57:38.007Z,15.30
2022-08-20T21:00:11.291Z,18.53
2022-08-20T21:02:39.629Z,18.33
2022-08-20T21:05:08.514Z,17.30
2022-08-20T21:07:45.990Z,18.90
2022-08-20T21:10:21.293Z,18.20
2022-08-20T21:12:53.123Z,18.13
2022-08-20T21:15:23.786Z,18.70
2022-08-20T21:17:52.663Z,17.10
2022-08-20T21:20:22.386Z,17.30
2022-08-20T21:22:50.609Z,18.30
2022-08-20T21:25:20.396Z,18.80
2022-08-20T21:27:52.169Z,17.20
2022-08-20T21:30:22.453Z,16.90
2022-08-20T21:32:51.132Z,17.33
2022-08-20T21:35:19.603Z,18.90
2022-08-20T21:37:47.842Z,19.30
2022-08-20T21:40:18.122Z,16.83
2022-08-20T21:42:51.493Z,20.07
2022-08-20T21:45:20.095Z,20.80
2022-08-20T21:47:49.293Z,20.97
2022-08-20T21:50:19.811Z,21.47
2022-08-20T21:52:59.387Z,19.13
2022-08-20T21:55:30.470Z,21.40
2022-08-20T21:58:00.084Z,19.67
2022-08-20T22:00:54.344Z,20.00
2022-08-20T22:03:24.727Z,19.27
2022-08-20T22:05:54.087Z,20.87
2022-08-20T22:08:24.174Z,21.03
2022-08-20T22:10:57.734Z,22.30
2022-08-20T22:13:31.430Z,19.67
2022-08-20T22:16:00.381Z,19.50
2022-08-20T22:18:28.814Z,21.07
2022-08-20T22:20:57.316Z,19.30
2022-08-20T22:23:25.898Z,21.23
2022-08-20T22:25:54.095Z,20.20
2022-08-20T22:28:23.183Z,19.10
2022-08-20T22:30:52.698Z,18.13
2022-08-20T22:33:23.287Z,19.63
2022-08-20T22:35:54.368Z,20.27
2022-08-20T22:38:23.157Z,22.87
2022-08-20T22:40:51.482Z,20.30
2022-08-20T22:43:19.848Z,20.57
2022-08-20T22:45:51.538Z,20.90
2022-08-20T22:48:21.814Z,19.87
2022-08-20T22:50:51.242Z,19.73
2022-08-20T22:53:21.727Z,21.37
2022-08-20T22:55:50.309Z,23.60
2022-08-20T22:58:19.813Z,23.10
2022-08-20T23:00:59.637Z,20.70
2022-08-20T23:03:39.145Z,23.00
2022-08-20T23:06:10.347Z,22.60
2022-08-20T23:08:38.950Z,22.80
2022-08-20T23:11:07.396Z,21.70
2022-08-20T23:13:35.629Z,24.03
2022-08-20T23:16:05.036Z,22.23
2022-08-20T23:18:34.834Z,23.63
2022-08-20T23:21:03.765Z,21.57
2022-08-20T23:23:32.292Z,22.50
2022-08-20T23:26:01.591Z,22.73
2022-08-20T23:28:29.759Z,19.60
2022-08-20T23:30:57.979Z,22.03
2022-08-20T23:33:26.372Z,22.40
2022-08-20T23:36:04.527Z,22.90
2022-08-20T23:38:32.713Z,21.83
2022-08-20T23:41:00.955Z,19.90
2022-08-20T23:43:29.171Z,19.03
2022-08-20T23:46:00.134Z,20.00
2022-08-20T23:48:28.303Z,21.17
2022-08-20T23:50:57.902Z,20.00
2022-08-20T23:53:26.190Z,19.87
2022-08-20T23:55:54.402Z,19.23
2022-08-20T23:58:22.625Z,16.17
